createdAt,value
2018-06-24T00:01:32.748Z,64.90
2018-06-24T00:04:01.846Z,64.80
2018-06-24T00:06:30.900Z,65.00
2018-06-24T00:08:59.964Z,65.80
2018-06-24T00:11:29.001Z,65.30
2018-06-24T00:13:58.131Z,64.90
2018-06-24T00:16:27.135Z,65.20
2018-06-24T00:18:56.389Z,65.30
2018-06-24T00:21:25.438Z,65.30
2018-06-24T00:23:54.529Z,65.10
2018-06-24T00:26:23.798Z,65.20
2018-06-24T00:28:52.927Z,65.40
2018-06-24T00:31:22.023Z,65.90
2018-06-24T00:33:51.280Z,66.00
2018-06-24T00:36:20.470Z,67.10
2018-06-24T00:38:49.661Z,66.60
2018-06-24T00:41:18.886Z,66.90
2018-06-24T00:43:48.291Z,67.10
2018-06-24T00:46:17.503Z,67.10
2018-06-24T00:48:46.556Z,67.80
2018-06-24T00:51:15.664Z,67.40
2018-06-24T00:53:44.708Z,67.20
2018-06-24T00:56:13.762Z,66.80
2018-06-24T00:58:43.111Z,66.80
2018-06-24T01:01:12.265Z,67.70
2018-06-24T01:03:41.349Z,67.20
2018-06-24T01:06:10.361Z,67.30
2018-06-24T01:08:39.504Z,67.50
2018-06-24T01:11:08.664Z,67.90
2018-06-24T01:13:37.813Z,68.00
2018-06-24T01:16:06.850Z,68.20
2018-06-24T01:18:36.105Z,68.20
2018-06-24T01:21:05.158Z,68.40
2018-06-24T01:23:34.251Z,68.70
2018-06-24T01:26:03.445Z,69.10
2018-06-24T01:28:32.502Z,69.30
2018-06-24T01:31:01.634Z,69.30
2018-06-24T01:33:30.772Z,69.40
2018-06-24T01:36:00.070Z,69.30
2018-06-24T01:38:29.115Z,69.40
2018-06-24T01:40:58.255Z,69.50
2018-06-24T01:43:27.330Z,69.70
2018-06-24T01:45:56.627Z,69.80
2018-06-24T01:48:25.704Z,69.70
2018-06-24T01:50:54.776Z,69.50
2018-06-24T01:53:23.812Z,69.80
2018-06-24T01:55:52.841Z,69.80
2018-06-24T01:58:21.893Z,69.80
2018-06-24T02:00:50.978Z,69.70
2018-06-24T02:03:20.287Z,69.70
2018-06-24T02:05:49.353Z,69.70
2018-06-24T02:08:18.509Z,69.80
2018-06-24T02:10:47.536Z,69.80
2018-06-24T02:13:16.622Z,69.70
2018-06-24T02:15:46.340Z,69.60
2018-06-24T02:18:16.188Z,69.70
2018-06-24T02:20:45.900Z,69.00
2018-06-24T02:23:14.951Z,69.90
2018-06-24T02:25:44.029Z,70.50
2018-06-24T02:28:13.106Z,70.50
2018-06-24T02:30:42.145Z,70.70
2018-06-24T02:33:11.421Z,70.70
2018-06-24T02:35:40.583Z,70.40
2018-06-24T02:38:09.707Z,70.20
2018-06-24T02:40:38.764Z,70.50
2018-06-24T02:43:07.792Z,70.70
2018-06-24T02:45:36.837Z,70.70
2018-06-24T02:48:06.058Z,71.00
2018-06-24T02:50:35.106Z,71.20
2018-06-24T02:53:04.347Z,71.50
2018-06-24T02:55:33.485Z,72.00
2018-06-24T02:58:02.554Z,71.80
2018-06-24T03:00:31.633Z,72.00
2018-06-24T03:03:00.828Z,71.70
2018-06-24T03:05:30.040Z,71.50
2018-06-24T03:07:59.068Z,71.50
2018-06-24T03:10:28.174Z,71.40
2018-06-24T03:12:57.196Z,71.00
2018-06-24T03:15:26.340Z,70.30
2018-06-24T03:17:55.534Z,70.10
2018-06-24T03:20:24.787Z,70.20
2018-06-24T03:22:53.828Z,70.60
2018-06-24T03:25:22.888Z,70.70
2018-06-24T03:27:51.936Z,70.90
2018-06-24T03:30:20.986Z,70.90
2018-06-24T03:32:50.208Z,70.40
2018-06-24T03:35:19.385Z,71.40
2018-06-24T03:37:48.460Z,72.60
2018-06-24T03:40:17.508Z,73.20
2018-06-24T03:42:46.584Z,73.70
2018-06-24T03:45:15.636Z,73.80
2018-06-24T03:47:44.760Z,73.40
2018-06-24T03:50:13.813Z,74.10
2018-06-24T03:52:42.958Z,73.90
2018-06-24T03:55:11.971Z,73.20
2018-06-24T03:57:41.331Z,71.80
2018-06-24T04:00:10.467Z,71.40
2018-06-24T04:02:39.624Z,71.30
2018-06-24T04:05:09.737Z,71.10
2018-06-24T04:07:39.308Z,71.10
2018-06-24T04:10:08.367Z,71.10
2018-06-24T04:12:37.420Z,70.90
2018-06-24T04:15:06.649Z,71.30
2018-06-24T04:17:35.693Z,71.40
2018-06-24T04:20:05.028Z,71.30
2018-06-24T04:22:34.245Z,71.50
2018-06-24T04:25:03.343Z,71.60
2018-06-24T04:27:32.508Z,71.30
2018-06-24T04:30:01.490Z,71.20
2018-06-24T04:32:30.606Z,71.70
2018-06-24T04:34:59.727Z,71.50
2018-06-24T04:37:28.894Z,71.80
2018-06-24T04:39:57.992Z,71.80
2018-06-24T04:42:27.147Z,71.30
2018-06-24T04:44:56.196Z,71.70
2018-06-24T04:47:25.360Z,72.70
2018-06-24T04:49:54.427Z,72.70
2018-06-24T04:52:23.791Z,72.60
2018-06-24T04:54:52.921Z,72.50
2018-06-24T04:57:21.988Z,72.10
2018-06-24T04:59:51.036Z,72.00
2018-06-24T05:02:20.174Z,71.60
2018-06-24T05:04:49.231Z,71.20
2018-06-24T05:07:18.488Z,71.20
2018-06-24T05:09:47.618Z,71.20
2018-06-24T05:12:16.755Z,71.50
2018-06-24T05:14:45.800Z,71.20
2018-06-24T05:17:14.852Z,72.10
2018-06-24T05:19:43.889Z,72.30
2018-06-24T05:22:12.927Z,72.20
2018-06-24T05:24:42.004Z,71.00
2018-06-24T05:27:11.105Z,70.80
2018-06-24T05:29:40.226Z,71.00
2018-06-24T05:32:09.260Z,70.10
2018-06-24T05:34:38.366Z,68.70
2018-06-24T05:37:07.434Z,68.60
2018-06-24T05:39:36.580Z,68.40
2018-06-24T05:42:05.697Z,68.10
2018-06-24T05:44:34.808Z,68.10
2018-06-24T05:47:04.009Z,68.10
2018-06-24T05:49:33.121Z,67.90
2018-06-24T05:54:30.944Z,66.30
2018-06-24T05:57:00.014Z,66.70
2018-06-24T05:59:29.264Z,66.80
2018-06-24T06:01:58.772Z,66.70
2018-06-24T06:04:27.992Z,66.80
2018-06-24T06:09:26.013Z,67.80
2018-06-24T06:11:55.145Z,67.40
2018-06-24T06:14:24.212Z,67.40
2018-06-24T06:16:53.368Z,67.40
2018-06-24T06:19:22.496Z,67.90
2018-06-24T06:21:51.567Z,67.80
2018-06-24T06:24:20.606Z,67.90
2018-06-24T06:26:49.904Z,68.10
2018-06-24T06:29:19.172Z,67.30
2018-06-24T06:31:48.208Z,66.70
2018-06-24T06:34:17.372Z,66.50
2018-06-24T06:36:46.467Z,66.20
2018-06-24T06:39:15.603Z,66.60
2018-06-24T06:41:44.702Z,66.60
2018-06-24T06:44:13.735Z,67.10
2018-06-24T06:46:42.768Z,66.40
2018-06-24T06:49:11.820Z,66.00
2018-06-24T06:51:40.934Z,65.90
2018-06-24T06:54:10.011Z,65.80
2018-06-24T06:56:39.258Z,65.60
2018-06-24T06:59:08.373Z,65.80
2018-06-24T07:01:37.550Z,65.90
2018-06-24T07:04:06.616Z,65.80
2018-06-24T07:06:35.670Z,65.80
2018-06-24T07:09:07.332Z,66.00
2018-06-24T07:14:05.111Z,65.80
2018-06-24T07:16:34.437Z,65.60
2018-06-24T07:19:03.548Z,66.00
2018-06-24T07:21:32.642Z,65.80
2018-06-24T07:24:01.687Z,65.50
2018-06-24T07:26:30.856Z,65.10
2018-06-24T07:29:00.213Z,64.70
2018-06-24T07:31:29.497Z,64.20
2018-06-24T07:33:58.552Z,64.20
2018-06-24T07:36:27.607Z,64.20
2018-06-24T07:38:56.708Z,64.10
2018-06-24T07:41:25.809Z,64.10
2018-06-24T07:43:54.969Z,63.50
2018-06-24T07:48:52.920Z,63.80
2018-06-24T07:51:22.013Z,63.70
2018-06-24T07:53:51.097Z,64.00
2018-06-24T07:56:20.287Z,63.90
2018-06-24T07:58:49.506Z,63.90
2018-06-24T08:01:18.571Z,63.40
2018-06-24T08:03:47.841Z,61.90
2018-06-24T08:06:16.893Z,62.50
2018-06-24T08:08:45.956Z,62.40
2018-06-24T08:11:15.192Z,62.80
2018-06-24T08:13:44.261Z,62.80
2018-06-24T08:16:13.300Z,63.10
2018-06-24T08:18:42.424Z,63.00
2018-06-24T08:21:11.493Z,63.70
2018-06-24T08:23:40.540Z,63.70
2018-06-24T08:26:10.098Z,63.70
2018-06-24T08:31:08.568Z,62.80
2018-06-24T08:33:37.670Z,62.90
2018-06-24T08:36:06.724Z,64.70
2018-06-24T08:38:35.805Z,66.20
2018-06-24T08:41:05.172Z,66.20
2018-06-24T08:43:34.378Z,65.40
2018-06-24T08:46:03.481Z,64.80
2018-06-24T08:48:32.541Z,64.40
2018-06-24T08:51:01.670Z,64.90
2018-06-24T08:53:30.718Z,65.00
2018-06-24T08:55:59.953Z,65.00
2018-06-24T08:58:29.036Z,64.30
2018-06-24T09:00:58.098Z,64.40
2018-06-24T09:03:27.492Z,64.80
2018-06-24T09:05:56.563Z,65.00
2018-06-24T09:08:25.604Z,65.40
2018-06-24T09:10:54.917Z,66.00
2018-06-24T09:13:23.964Z,66.20
2018-06-24T09:15:53.183Z,65.70
2018-06-24T09:18:22.228Z,64.30
2018-06-24T09:20:51.372Z,64.40
2018-06-24T09:23:20.440Z,65.10
2018-06-24T09:25:49.604Z,65.10
2018-06-24T09:28:18.614Z,61.00
2018-06-24T09:30:47.832Z,60.20
2018-06-24T09:33:16.820Z,56.40
2018-06-24T09:35:46.119Z,55.60
2018-06-24T09:38:15.238Z,56.70
2018-06-24T09:40:44.336Z,55.10
2018-06-24T09:43:13.566Z,55.60
2018-06-24T09:45:42.694Z,61.30
2018-06-24T09:48:11.740Z,61.60
2018-06-24T09:50:40.930Z,61.10
2018-06-24T09:53:10.153Z,62.70
2018-06-24T09:55:39.274Z,60.70
2018-06-24T09:58:08.316Z,59.00
2018-06-24T10:00:37.580Z,61.80
2018-06-24T10:03:06.682Z,58.70
2018-06-24T10:05:35.816Z,58.10
2018-06-24T10:10:35.047Z,57.40
2018-06-24T10:13:04.092Z,55.70
2018-06-24T10:15:33.462Z,57.00
2018-06-24T10:18:02.621Z,56.20
2018-06-24T10:20:31.732Z,55.00
2018-06-24T10:23:00.794Z,51.70
2018-06-24T10:25:29.877Z,52.30
2018-06-24T10:27:59.105Z,50.60
2018-06-24T10:30:28.205Z,51.60
2018-06-24T10:35:26.141Z,55.70
2018-06-24T10:37:55.648Z,50.00
2018-06-24T10:40:24.998Z,50.90
2018-06-24T10:42:54.354Z,52.50
2018-06-24T10:45:23.487Z,49.90
2018-06-24T10:47:52.858Z,49.30
2018-06-24T10:50:22.118Z,49.90
2018-06-24T10:52:51.246Z,51.20
2018-06-24T10:55:20.381Z,50.00
2018-06-24T10:57:49.475Z,48.70
2018-06-24T11:00:18.520Z,48.60
2018-06-24T11:02:47.571Z,47.50
2018-06-24T11:05:16.632Z,49.50
2018-06-24T11:07:47.580Z,53.20
2018-06-24T11:10:17.831Z,49.60
2018-06-24T11:12:47.467Z,49.90
2018-06-24T11:15:16.504Z,51.00
2018-06-24T11:17:45.548Z,50.30
2018-06-24T11:20:15.704Z,49.60
2018-06-24T11:22:45.744Z,50.50
2018-06-24T11:25:16.078Z,50.90
2018-06-24T11:27:47.098Z,51.00
2018-06-24T11:30:16.609Z,51.10
2018-06-24T11:32:45.751Z,51.40
2018-06-24T11:35:14.809Z,50.30
2018-06-24T11:37:43.992Z,51.30
2018-06-24T11:40:13.064Z,51.30
2018-06-24T11:42:42.355Z,50.80
2018-06-24T11:45:11.409Z,50.90
2018-06-24T11:47:41.271Z,49.40
2018-06-24T11:50:12.928Z,49.40
2018-06-24T11:52:42.764Z,47.70
2018-06-24T11:55:12.113Z,50.60
2018-06-24T11:57:42.292Z,48.50
2018-06-24T12:00:12.321Z,49.30
2018-06-24T12:02:41.725Z,50.50
2018-06-24T12:05:11.697Z,50.40
2018-06-24T12:07:42.953Z,50.80
2018-06-24T12:10:12.015Z,49.60
2018-06-24T12:12:41.728Z,49.70
2018-06-24T12:15:10.773Z,49.90
2018-06-24T12:17:39.848Z,49.30
2018-06-24T12:20:08.970Z,49.30
2018-06-24T12:22:38.054Z,49.30
2018-06-24T12:25:07.516Z,50.00
2018-06-24T12:27:37.778Z,50.40
2018-06-24T12:30:07.136Z,48.80
2018-06-24T12:32:36.599Z,49.20
2018-06-24T12:35:05.799Z,49.60
2018-06-24T12:37:35.072Z,49.50
2018-06-24T12:40:04.251Z,50.00
2018-06-24T12:42:33.556Z,49.50
2018-06-24T12:45:02.660Z,49.20
2018-06-24T12:47:31.842Z,49.40
2018-06-24T12:50:01.577Z,48.40
2018-06-24T12:52:30.965Z,48.50
2018-06-24T12:55:00.626Z,50.00
2018-06-24T12:57:29.687Z,48.40
2018-06-24T12:59:59.557Z,49.40
2018-06-24T13:02:28.367Z,49.40
2018-06-24T13:04:57.525Z,48.80
2018-06-24T13:07:26.568Z,49.30
2018-06-24T13:09:55.715Z,49.10
2018-06-24T13:12:24.785Z,49.60
2018-06-24T13:14:53.933Z,48.40
2018-06-24T13:17:23.128Z,50.20
2018-06-24T13:19:52.296Z,47.50
2018-06-24T13:22:21.351Z,47.70
2018-06-24T13:24:50.582Z,48.20
2018-06-24T13:27:19.640Z,49.00
2018-06-24T13:29:48.683Z,47.60
2018-06-24T13:32:17.734Z,47.70
2018-06-24T13:34:46.852Z,48.40
2018-06-24T13:37:15.905Z,48.20
2018-06-24T13:39:44.965Z,48.70
2018-06-24T13:42:14.368Z,49.20
2018-06-24T13:44:43.350Z,49.30
2018-06-24T13:47:12.480Z,48.30
2018-06-24T13:49:41.536Z,48.60
2018-06-24T13:52:10.611Z,48.10
2018-06-24T13:54:39.669Z,48.70
2018-06-24T13:57:08.858Z,49.00
2018-06-24T13:59:37.929Z,50.30
2018-06-24T14:02:07.041Z,48.40
2018-06-24T14:04:36.089Z,49.50
2018-06-24T14:07:05.155Z,50.80
2018-06-24T14:09:34.229Z,50.10
2018-06-24T14:12:03.253Z,48.90
2018-06-24T14:14:32.361Z,48.70
2018-06-24T14:17:01.372Z,48.10
2018-06-24T14:19:30.416Z,51.30
2018-06-24T14:21:59.497Z,49.30
2018-06-24T14:24:28.577Z,51.80
2018-06-24T14:26:57.622Z,49.40
2018-06-24T14:29:26.708Z,49.20
2018-06-24T14:31:55.802Z,49.30
2018-06-24T14:34:24.842Z,49.70
2018-06-24T14:36:54.040Z,51.10
2018-06-24T14:39:23.172Z,49.80
2018-06-24T14:41:52.252Z,48.80
2018-06-24T14:44:21.467Z,48.70
2018-06-24T14:46:50.571Z,47.80
2018-06-24T14:49:19.679Z,48.50
2018-06-24T14:51:48.720Z,49.30
2018-06-24T14:54:17.941Z,48.70
2018-06-24T14:56:47.039Z,48.90
2018-06-24T14:59:16.173Z,48.90
2018-06-24T15:01:45.223Z,48.70
2018-06-24T15:04:14.340Z,49.30
2018-06-24T15:06:43.541Z,48.30
2018-06-24T15:09:13.248Z,49.10
2018-06-24T15:11:42.510Z,48.70
2018-06-24T15:14:11.842Z,48.50
2018-06-24T15:16:41.296Z,48.10
2018-06-24T15:19:10.347Z,48.40
2018-06-24T15:21:39.409Z,48.90
2018-06-24T15:24:08.654Z,49.10
2018-06-24T15:26:37.696Z,48.90
2018-06-24T15:29:06.849Z,48.40
2018-06-24T15:31:35.911Z,48.40
2018-06-24T15:34:05.133Z,48.10
2018-06-24T15:36:35.063Z,49.20
2018-06-24T15:39:06.557Z,49.00
2018-06-24T15:41:35.622Z,49.30
2018-06-24T15:44:04.828Z,48.50
2018-06-24T15:46:34.104Z,48.30
2018-06-24T15:49:03.205Z,49.60
2018-06-24T15:51:32.253Z,49.20
2018-06-24T15:54:01.534Z,49.00
2018-06-24T15:56:30.682Z,48.70
2018-06-24T15:58:59.998Z,48.30
2018-06-24T16:01:29.165Z,48.60
2018-06-24T16:03:58.298Z,48.70
2018-06-24T16:06:27.422Z,49.00
2018-06-24T16:08:56.657Z,49.20
2018-06-24T16:11:25.746Z,49.00
2018-06-24T16:13:54.996Z,48.00
2018-06-24T16:16:24.160Z,47.70
2018-06-24T16:18:53.264Z,48.30
2018-06-24T16:21:22.440Z,47.70
2018-06-24T16:23:51.469Z,46.50
2018-06-24T16:26:20.499Z,47.00
2018-06-24T16:28:49.535Z,47.60
2018-06-24T16:31:24.993Z,46.80
2018-06-24T16:33:54.050Z,47.50
2018-06-24T16:36:23.215Z,47.70
2018-06-24T16:38:52.352Z,47.50
2018-06-24T16:41:21.432Z,47.40
2018-06-24T16:43:50.502Z,46.70
2018-06-24T16:46:19.602Z,45.90
2018-06-24T16:48:48.672Z,46.60
2018-06-24T16:51:17.716Z,46.80
2018-06-24T16:53:46.785Z,46.80
2018-06-24T16:56:15.956Z,46.50
2018-06-24T16:58:45.023Z,46.70
2018-06-24T17:01:14.109Z,46.70
2018-06-24T17:03:43.447Z,46.80
2018-06-24T17:06:12.592Z,47.20
2018-06-24T17:08:41.630Z,47.90
2018-06-24T17:11:11.397Z,47.90
2018-06-24T17:13:40.533Z,48.10
2018-06-24T17:16:09.572Z,48.10
2018-06-24T17:18:38.632Z,48.40
2018-06-24T17:21:07.800Z,48.70
2018-06-24T17:23:36.875Z,48.60
2018-06-24T17:26:05.972Z,48.70
2018-06-24T17:28:35.024Z,49.30
2018-06-24T17:31:04.152Z,48.80
2018-06-24T17:33:33.270Z,48.90
2018-06-24T17:36:02.357Z,49.40
2018-06-24T17:38:31.511Z,48.60
2018-06-24T17:41:00.602Z,49.50
2018-06-24T17:43:29.747Z,49.00
2018-06-24T17:48:27.563Z,48.60
2018-06-24T17:50:56.633Z,49.00
2018-06-24T17:53:26.215Z,48.90
2018-06-24T17:55:55.298Z,48.90
2018-06-24T17:58:24.489Z,49.30
2018-06-24T18:00:53.529Z,49.40
2018-06-24T18:03:22.665Z,49.80
2018-06-24T18:05:51.714Z,50.00
2018-06-24T18:10:49.513Z,50.70
2018-06-24T18:15:47.308Z,51.40
2018-06-24T18:18:16.402Z,52.10
2018-06-24T18:20:45.489Z,52.30
2018-06-24T18:23:14.520Z,51.60
2018-06-24T18:25:43.613Z,51.80
2018-06-24T18:28:12.799Z,51.70
2018-06-24T18:30:41.749Z,51.90
2018-06-24T18:33:10.865Z,51.80
2018-06-24T18:35:39.920Z,51.90
2018-06-24T18:38:08.961Z,52.10
2018-06-24T18:40:38.076Z,52.10
2018-06-24T18:43:07.125Z,53.00
2018-06-24T18:45:36.251Z,52.80
2018-06-24T18:48:05.329Z,52.70
2018-06-24T18:50:34.405Z,53.10
2018-06-24T18:53:03.464Z,53.10
2018-06-24T18:55:32.512Z,53.30
2018-06-24T18:58:01.542Z,53.60
2018-06-24T19:00:30.608Z,53.60
2018-06-24T19:03:00.061Z,53.50
2018-06-24T19:05:28.963Z,53.50
2018-06-24T19:07:58.248Z,54.30
2018-06-24T19:10:27.750Z,54.00
2018-06-24T19:12:56.827Z,54.30
2018-06-24T19:15:25.924Z,54.60
2018-06-24T19:17:55.181Z,54.10
2018-06-24T19:20:24.422Z,54.50
2018-06-24T19:22:53.614Z,54.70
2018-06-24T19:25:22.854Z,54.90
2018-06-24T19:27:52.289Z,55.20
2018-06-24T19:30:21.348Z,55.30
2018-06-24T19:32:50.693Z,55.00
2018-06-24T19:35:19.773Z,55.00
2018-06-24T19:37:48.861Z,55.20
2018-06-24T19:40:18.136Z,55.20
2018-06-24T19:42:47.406Z,55.30
2018-06-24T19:45:16.840Z,55.60
2018-06-24T19:47:46.472Z,55.40
2018-06-24T19:50:15.662Z,55.30
2018-06-24T19:52:44.908Z,55.90
2018-06-24T19:55:14.227Z,55.70
2018-06-24T19:57:43.304Z,55.70
2018-06-24T20:00:12.420Z,55.80
2018-06-24T20:02:41.516Z,55.70
2018-06-24T20:05:10.619Z,56.10
2018-06-24T20:07:39.812Z,56.20
2018-06-24T20:10:09.208Z,56.20
2018-06-24T20:12:38.522Z,55.90
2018-06-24T20:15:07.892Z,56.10
2018-06-24T20:17:37.025Z,55.80
2018-06-24T20:20:06.966Z,55.80
2018-06-24T20:22:36.220Z,55.70
2018-06-24T20:25:05.717Z,55.60
2018-06-24T20:27:35.426Z,55.60
2018-06-24T20:30:05.161Z,55.60
2018-06-24T20:32:34.306Z,55.90
2018-06-24T20:35:03.517Z,55.60
2018-06-24T20:37:32.710Z,56.00
2018-06-24T20:40:01.791Z,56.20
2018-06-24T20:42:31.154Z,57.10
2018-06-24T20:45:00.224Z,56.60
2018-06-24T20:47:29.401Z,56.50
2018-06-24T20:49:58.458Z,56.60
2018-06-24T20:52:27.520Z,56.60
2018-06-24T20:54:56.596Z,56.60
2018-06-24T20:57:25.701Z,56.70
2018-06-24T20:59:54.810Z,57.80
2018-06-24T21:02:23.888Z,57.20
2018-06-24T21:04:52.940Z,57.10
2018-06-24T21:07:22.819Z,57.10
2018-06-24T21:09:51.831Z,57.30
2018-06-24T21:12:21.639Z,57.70
2018-06-24T21:14:50.658Z,57.70
2018-06-24T21:17:19.735Z,57.80
2018-06-24T21:19:48.804Z,57.80
2018-06-24T21:22:17.972Z,57.80
2018-06-24T21:24:47.140Z,58.00
2018-06-24T21:27:16.220Z,58.20
2018-06-24T21:29:45.369Z,58.80
2018-06-24T21:32:14.610Z,58.40
2018-06-24T21:34:43.681Z,58.50
2018-06-24T21:37:12.777Z,58.60
2018-06-24T21:39:41.909Z,58.60
2018-06-24T21:42:10.956Z,58.70
2018-06-24T21:44:40.051Z,58.70
2018-06-24T21:47:09.148Z,58.70
2018-06-24T21:49:38.238Z,58.80
2018-06-24T21:52:07.476Z,59.20
2018-06-24T21:54:36.560Z,59.20
2018-06-24T21:57:05.655Z,59.30
2018-06-24T21:59:34.688Z,59.70
2018-06-24T22:02:03.800Z,59.60
2018-06-24T22:04:32.856Z,59.70
2018-06-24T22:07:02.164Z,59.90
2018-06-24T22:09:31.237Z,60.30
2018-06-24T22:12:00.380Z,60.30
2018-06-24T22:14:29.428Z,60.30
2018-06-24T22:16:58.562Z,60.80
2018-06-24T22:19:27.612Z,61.00
2018-06-24T22:21:56.705Z,61.10
2018-06-24T22:24:26.268Z,60.70
2018-06-24T22:26:55.334Z,61.30
2018-06-24T22:29:24.721Z,61.30
2018-06-24T22:31:54.315Z,61.80
2018-06-24T22:34:23.380Z,61.70
2018-06-24T22:36:52.445Z,61.80
2018-06-24T22:39:22.176Z,61.70
2018-06-24T22:41:51.420Z,61.70
2018-06-24T22:44:20.473Z,62.00
2018-06-24T22:46:49.512Z,61.80
2018-06-24T22:49:18.596Z,61.70
2018-06-24T22:51:47.760Z,61.50
2018-06-24T22:54:16.852Z,61.60
2018-06-24T22:56:46.023Z,61.70
2018-06-24T22:59:26.564Z,61.70
2018-06-24T23:01:55.928Z,61.80
2018-06-24T23:04:25.013Z,62.00
2018-06-24T23:06:54.285Z,62.10
2018-06-24T23:09:23.259Z,62.00
2018-06-24T23:11:52.433Z,62.10
2018-06-24T23:14:21.475Z,61.90
2018-06-24T23:16:50.592Z,62.00
2018-06-24T23:19:19.703Z,62.20
2018-06-24T23:21:48.836Z,62.40
2018-06-24T23:24:17.898Z,62.30
2018-06-24T23:26:47.012Z,62.40
2018-06-24T23:29:16.065Z,62.80
2018-06-24T23:31:45.192Z,62.80
2018-06-24T23:34:14.239Z,62.80
2018-06-24T23:36:43.481Z,63.00
2018-06-24T23:39:12.602Z,63.00
2018-06-24T23:41:41.779Z,63.10
2018-06-24T23:44:10.818Z,63.20
2018-06-24T23:46:39.880Z,64.30
2018-06-24T23:49:08.968Z,63.90
2018-06-24T23:51:38.172Z,63.70
2018-06-24T23:54:07.227Z,63.50
2018-06-24T23:56:36.379Z,63.80
2018-06-24T23:59:05.672Z,63.90
